Time;durP1;ratioP1;P1;durP2;ratioP2;P2;SDS_P1;SDS_P2;PMS_P1;PMS_P2;Temp;Humidity;BMP_temperature;BMP_pressure;BME280_temperature;BME280_humidity;BME280_pressure;Samples;Min_cycle;Max_cycle;Signal;HPM_P1;HPM_P2
2023/08/07 00:01:52;;;;;;;5.50;4.87;;;;;;;;;;5043429;28;20463;-79
2023/08/07 00:04:18;;;;;;;6.07;4.60;;;;;;;;;;5040464;28;20525;-79
2023/08/07 00:06:44;;;;;;;7.43;5.17;;;;;;;;;;5042968;28;20456;-80
2023/08/07 00:09:11;;;;;;;5.30;4.43;;;;;;;;;;5042629;28;20441;-79
2023/08/07 00:11:38;;;;;;;7.23;6.20;;;;;;;;;;5045152;28;20495;-80
2023/08/07 00:14:05;;;;;;;8.90;6.07;;;;;;;;;;5043242;28;20485;-80
2023/08/07 00:16:31;;;;;;;6.83;6.13;;;;;;;;;;5044435;28;20467;-80
2023/08/07 00:18:57;;;;;;;16.23;7.70;;;;;;;;;;5042696;28;20463;-79
2023/08/07 00:21:24;;;;;;;8.87;6.83;;;;;;;;;;5043004;28;20505;-80
2023/08/07 00:23:54;;;;;;;10.13;6.73;;;;;;;;;;5042653;28;20468;-79
2023/08/07 00:26:20;;;;;;;9.97;6.77;;;;;;;;;;5044812;28;20461;-79
2023/08/07 00:28:48;;;;;;;8.67;6.23;;;;;;;;;;5043058;28;20465;-80
2023/08/07 00:31:14;;;;;;;12.80;6.43;;;;;;;;;;5041261;28;20436;-79
2023/08/07 00:33:41;;;;;;;9.57;6.67;;;;;;;;;;5046386;28;20509;-79
2023/08/07 00:36:08;;;;;;;10.43;6.07;;;;;;;;;;5043960;28;20456;-80
2023/08/07 00:38:35;;;;;;;8.20;6.37;;;;;;;;;;5044321;28;20815;-79
2023/08/07 00:41:01;;;;;;;10.20;6.53;;;;;;;;;;5046933;28;20486;-79
2023/08/07 00:43:27;;;;;;;10.43;6.33;;;;;;;;;;5044012;28;20483;-80
2023/08/07 00:45:56;;;;;;;8.07;6.30;;;;;;;;;;5045095;28;20455;-80
2023/08/07 00:48:22;;;;;;;7.23;6.50;;;;;;;;;;5043258;28;20567;-79
2023/08/07 00:50:49;;;;;;;9.67;6.30;;;;;;;;;;5040266;28;20459;-80
2023/08/07 00:53:16;;;;;;;10.63;6.50;;;;;;;;;;5045282;28;20482;-79
2023/08/07 00:55:42;;;;;;;8.63;6.30;;;;;;;;;;5043198;28;20491;-79
2023/08/07 00:58:08;;;;;;;7.10;5.93;;;;;;;;;;5042283;28;20473;-79
2023/08/07 01:00:35;;;;;;;7.47;6.10;;;;;;;;;;5044328;28;20459;-79
2023/08/07 01:03:03;;;;;;;9.87;6.83;;;;;;;;;;5043754;28;20458;-80
2023/08/07 01:05:29;;;;;;;11.40;6.70;;;;;;;;;;5042635;28;20460;-79
2023/08/07 01:07:56;;;;;;;8.63;6.80;;;;;;;;;;5043399;28;20464;-79
2023/08/07 01:10:26;;;;;;;13.83;6.10;;;;;;;;;;5042707;28;20438;-79
2023/08/07 01:12:56;;;;;;;6.60;5.90;;;;;;;;;;5043163;28;20476;-79
2023/08/07 01:15:24;;;;;;;13.00;6.50;;;;;;;;;;5041753;28;20483;-79
2023/08/07 01:17:52;;;;;;;9.80;6.03;;;;;;;;;;5042828;28;21030;-79
2023/08/07 01:20:21;;;;;;;9.90;6.23;;;;;;;;;;5044479;28;20466;-79
2023/08/07 01:22:48;;;;;;;7.37;6.03;;;;;;;;;;5042341;28;20488;-79
2023/08/07 01:25:15;;;;;;;9.10;6.53;;;;;;;;;;5044599;28;20834;-79
2023/08/07 01:27:43;;;;;;;9.03;6.37;;;;;;;;;;5040216;28;20477;-79
2023/08/07 01:30:12;;;;;;;10.43;6.03;;;;;;;;;;5041854;28;20471;-79
2023/08/07 01:32:43;;;;;;;9.13;7.00;;;;;;;;;;5043385;28;20479;-79
2023/08/07 01:35:12;;;;;;;8.17;6.03;;;;;;;;;;5040143;28;20489;-79
2023/08/07 01:37:41;;;;;;;8.90;5.80;;;;;;;;;;5042428;28;20457;-80
2023/08/07 01:40:10;;;;;;;9.70;5.83;;;;;;;;;;5040605;28;21083;-79
2023/08/07 01:42:37;;;;;;;10.33;6.33;;;;;;;;;;5043445;28;20486;-79
2023/08/07 01:45:04;;;;;;;10.53;6.30;;;;;;;;;;5042358;28;20456;-79
2023/08/07 01:47:31;;;;;;;8.60;6.40;;;;;;;;;;5041297;28;20492;-80
2023/08/07 01:49:59;;;;;;;13.13;7.00;;;;;;;;;;5042671;28;20452;-79
2023/08/07 01:52:26;;;;;;;10.57;7.03;;;;;;;;;;5044158;28;20452;-79
2023/08/07 01:54:52;;;;;;;11.10;6.77;;;;;;;;;;5044374;28;20466;-80
2023/08/07 01:57:20;;;;;;;9.10;6.50;;;;;;;;;;5043077;28;20475;-79
2023/08/07 01:59:46;;;;;;;9.87;6.80;;;;;;;;;;5044240;28;20491;-79
2023/08/07 02:02:13;;;;;;;10.97;7.67;;;;;;;;;;5039495;28;20452;-79
2023/08/07 02:04:39;;;;;;;9.67;6.50;;;;;;;;;;5040839;28;20437;-80
2023/08/07 02:07:07;;;;;;;8.60;6.93;;;;;;;;;;5042531;28;20817;-79
2023/08/07 02:09:34;;;;;;;7.60;6.83;;;;;;;;;;5044003;28;20471;-79
2023/08/07 02:12:01;;;;;;;7.63;6.40;;;;;;;;;;5042051;28;20525;-79
2023/08/07 02:14:29;;;;;;;14.00;7.23;;;;;;;;;;5040038;28;20492;-80
2023/08/07 02:16:55;;;;;;;9.60;6.13;;;;;;;;;;5041629;28;20443;-80
2023/08/07 02:19:21;;;;;;;12.90;7.00;;;;;;;;;;5042569;28;20435;-79
2023/08/07 02:21:48;;;;;;;16.13;7.77;;;;;;;;;;5041753;28;21166;-79
2023/08/07 02:24:14;;;;;;;12.13;6.20;;;;;;;;;;5043458;28;20527;-79
2023/08/07 02:26:40;;;;;;;6.97;6.27;;;;;;;;;;5041242;28;20447;-80
2023/08/07 02:29:08;;;;;;;13.13;7.33;;;;;;;;;;5040010;28;20435;-79
2023/08/07 02:31:36;;;;;;;8.07;6.60;;;;;;;;;;5041273;28;20556;-79
2023/08/07 02:34:03;;;;;;;9.23;5.70;;;;;;;;;;5041820;28;20431;-80
2023/08/07 02:36:29;;;;;;;9.43;7.27;;;;;;;;;;5041613;28;20475;-80
2023/08/07 02:38:55;;;;;;;11.17;7.20;;;;;;;;;;5043282;28;20436;-79
2023/08/07 02:41:21;;;;;;;9.43;7.03;;;;;;;;;;5046416;28;20437;-80
2023/08/07 02:43:49;;;;;;;12.53;6.60;;;;;;;;;;5046208;28;20971;-79
2023/08/07 02:46:15;;;;;;;10.77;6.23;;;;;;;;;;5045543;28;20411;-79
2023/08/07 02:48:44;;;;;;;8.03;7.17;;;;;;;;;;5043648;28;20462;-79
2023/08/07 02:51:10;;;;;;;10.07;6.80;;;;;;;;;;5046258;28;20423;-79
2023/08/07 02:53:37;;;;;;;14.33;6.13;;;;;;;;;;5043410;28;20574;-80
2023/08/07 02:56:03;;;;;;;8.17;6.77;;;;;;;;;;5043622;28;20483;-79
2023/08/07 02:58:29;;;;;;;10.70;6.50;;;;;;;;;;5044172;28;20441;-79
2023/08/07 03:00:56;;;;;;;9.77;6.90;;;;;;;;;;5045686;28;20442;-79
2023/08/07 03:03:22;;;;;;;12.03;7.33;;;;;;;;;;5045190;28;20557;-79
2023/08/07 03:05:51;;;;;;;12.13;6.43;;;;;;;;;;5046224;28;20434;-79
2023/08/07 03:08:17;;;;;;;9.53;6.30;;;;;;;;;;5043494;28;20454;-79
2023/08/07 03:10:50;;;;;;;17.47;6.80;;;;;;;;;;5045227;28;20463;-79
2023/08/07 03:13:16;;;;;;;9.47;6.83;;;;;;;;;;5044258;28;20454;-79
2023/08/07 03:15:42;;;;;;;10.07;7.30;;;;;;;;;;5043119;28;20483;-79
2023/08/07 03:18:09;;;;;;;9.83;8.30;;;;;;;;;;5044149;28;20480;-79
2023/08/07 03:20:37;;;;;;;9.70;6.37;;;;;;;;;;5043824;28;20963;-79
2023/08/07 03:23:04;;;;;;;10.90;6.80;;;;;;;;;;5044738;28;21021;-79
2023/08/07 03:25:31;;;;;;;8.33;6.50;;;;;;;;;;5042702;28;20448;-79
2023/08/07 03:27:57;;;;;;;6.93;6.23;;;;;;;;;;5043760;28;20480;-79
2023/08/07 03:30:23;;;;;;;9.33;6.00;;;;;;;;;;5046311;28;20445;-79
2023/08/07 03:32:50;;;;;;;11.53;5.60;;;;;;;;;;5042397;28;21405;-79
2023/08/07 03:35:16;;;;;;;8.60;4.87;;;;;;;;;;5045066;28;20530;-79
2023/08/07 03:37:42;;;;;;;6.33;4.43;;;;;;;;;;5042484;28;20451;-79
2023/08/07 03:40:11;;;;;;;5.10;3.80;;;;;;;;;;5043764;28;20445;-79
2023/08/07 03:42:37;;;;;;;5.43;3.70;;;;;;;;;;5044613;28;20858;-79
2023/08/07 03:45:04;;;;;;;6.80;3.90;;;;;;;;;;5042775;28;20428;-79
2023/08/07 03:47:30;;;;;;;6.63;4.00;;;;;;;;;;5044379;28;20479;-79
2023/08/07 03:49:56;;;;;;;6.30;4.20;;;;;;;;;;5044707;28;20435;-79
2023/08/07 03:52:23;;;;;;;5.83;4.07;;;;;;;;;;5044448;28;21028;-79
2023/08/07 03:54:49;;;;;;;3.73;3.40;;;;;;;;;;5044002;28;20440;-79
2023/08/07 03:57:18;;;;;;;7.63;3.57;;;;;;;;;;5043002;28;20434;-79
2023/08/07 03:59:44;;;;;;;5.23;3.80;;;;;;;;;;5044097;28;20462;-79
2023/08/07 04:02:10;;;;;;;5.30;3.83;;;;;;;;;;5040832;28;20848;-79
2023/08/07 04:04:38;;;;;;;3.60;3.00;;;;;;;;;;5041164;28;20448;-79
2023/08/07 04:07:04;;;;;;;4.87;3.80;;;;;;;;;;5042951;28;20471;-79
2023/08/07 04:09:31;;;;;;;3.53;3.17;;;;;;;;;;5042407;28;21017;-79
2023/08/07 04:11:57;;;;;;;3.50;3.20;;;;;;;;;;5042111;28;21003;-79
2023/08/07 04:14:25;;;;;;;5.77;2.93;;;;;;;;;;5005464;28;1116380;-79
2023/08/07 04:16:51;;;;;;;3.80;3.37;;;;;;;;;;5047790;28;20851;-79
2023/08/07 04:19:18;;;;;;;3.73;3.10;;;;;;;;;;5044895;28;20455;-79
2023/08/07 04:21:44;;;;;;;3.43;3.13;;;;;;;;;;5043660;28;20578;-79
2023/08/07 04:24:11;;;;;;;3.93;3.60;;;;;;;;;;5043507;28;20465;-79
2023/08/07 04:26:37;;;;;;;5.90;3.50;;;;;;;;;;5043788;28;20510;-79
2023/08/07 04:29:04;;;;;;;3.07;2.77;;;;;;;;;;5045787;28;20456;-79
2023/08/07 04:31:32;;;;;;;5.90;2.40;;;;;;;;;;5043241;28;20435;-79
2023/08/07 04:33:59;;;;;;;5.37;3.27;;;;;;;;;;5043317;28;20464;-79
2023/08/07 04:36:25;;;;;;;5.00;3.10;;;;;;;;;;5040429;28;20582;-79
2023/08/07 04:38:51;;;;;;;7.70;3.60;;;;;;;;;;5041886;28;20454;-79
2023/08/07 04:41:18;;;;;;;4.57;3.77;;;;;;;;;;5043154;28;20973;-78
2023/08/07 04:43:44;;;;;;;4.23;3.80;;;;;;;;;;5043468;28;20475;-79
2023/08/07 04:46:11;;;;;;;7.40;4.07;;;;;;;;;;5044098;28;20947;-79
2023/08/07 04:48:42;;;;;;;5.30;4.30;;;;;;;;;;5042971;28;21105;-79
2023/08/07 04:51:08;;;;;;;5.00;3.53;;;;;;;;;;5042454;28;20533;-79
2023/08/07 04:53:34;;;;;;;4.53;3.07;;;;;;;;;;5041746;28;20451;-79
2023/08/07 04:56:02;;;;;;;4.07;2.70;;;;;;;;;;5043885;28;20446;-79
2023/08/07 04:58:29;;;;;;;4.60;3.17;;;;;;;;;;5042272;28;20446;-79
2023/08/07 05:00:56;;;;;;;2.00;1.70;;;;;;;;;;5042473;28;20444;-79
2023/08/07 05:03:22;;;;;;;3.77;2.63;;;;;;;;;;5042099;28;20495;-79
2023/08/07 05:05:50;;;;;;;2.93;2.40;;;;;;;;;;5041704;28;20432;-79
2023/08/07 05:08:17;;;;;;;3.47;2.10;;;;;;;;;;5040354;28;20447;-79
2023/08/07 05:10:43;;;;;;;3.70;2.53;;;;;;;;;;5044576;28;20433;-79
2023/08/07 05:13:12;;;;;;;3.40;2.37;;;;;;;;;;5038937;28;20488;-79
2023/08/07 05:15:40;;;;;;;2.93;2.43;;;;;;;;;;5043642;28;20465;-79
2023/08/07 05:18:06;;;;;;;3.17;2.10;;;;;;;;;;5042018;28;20854;-79
2023/08/07 05:20:33;;;;;;;4.10;2.17;;;;;;;;;;5042530;28;20469;-79
2023/08/07 05:23:01;;;;;;;2.20;2.00;;;;;;;;;;5044558;28;20484;-79
2023/08/07 05:25:27;;;;;;;6.70;2.60;;;;;;;;;;5043301;28;20533;-79
2023/08/07 05:27:53;;;;;;;4.70;2.70;;;;;;;;;;5043736;28;20848;-79
2023/08/07 05:30:20;;;;;;;7.43;2.30;;;;;;;;;;5043439;28;20453;-79
2023/08/07 05:32:46;;;;;;;4.90;2.60;;;;;;;;;;5045499;28;20473;-79
2023/08/07 05:35:12;;;;;;;5.50;2.70;;;;;;;;;;5039585;28;20464;-79
2023/08/07 05:37:39;;;;;;;5.70;2.80;;;;;;;;;;5043089;28;20858;-79
2023/08/07 05:40:11;;;;;;;8.50;4.90;;;;;;;;;;5043323;28;20819;-78
2023/08/07 05:42:38;;;;;;;3.83;2.50;;;;;;;;;;5042638;28;20503;-79
2023/08/07 05:45:04;;;;;;;11.80;2.80;;;;;;;;;;5044157;28;20447;-78
2023/08/07 05:47:31;;;;;;;4.10;2.13;;;;;;;;;;5041396;28;20483;-79
2023/08/07 05:49:57;;;;;;;4.33;2.67;;;;;;;;;;5043145;28;20440;-79
2023/08/07 05:52:24;;;;;;;3.40;2.53;;;;;;;;;;5041626;28;20450;-79
2023/08/07 05:54:50;;;;;;;5.33;2.90;;;;;;;;;;5040008;28;20464;-79
2023/08/07 05:57:18;;;;;;;16.83;3.13;;;;;;;;;;5041755;28;20488;-79
2023/08/07 05:59:45;;;;;;;5.20;2.60;;;;;;;;;;5040675;28;20811;-79
2023/08/07 06:02:11;;;;;;;4.10;2.43;;;;;;;;;;5041491;28;21037;-79
2023/08/07 06:04:38;;;;;;;7.40;2.73;;;;;;;;;;5041815;28;20477;-78
2023/08/07 06:07:04;;;;;;;6.50;3.07;;;;;;;;;;5040638;28;20492;-82
2023/08/07 06:09:31;;;;;;;3.00;2.43;;;;;;;;;;5042931;28;20443;-79
2023/08/07 06:11:57;;;;;;;5.97;3.20;;;;;;;;;;5039477;28;20464;-79
2023/08/07 06:14:25;;;;;;;5.33;2.93;;;;;;;;;;5041861;28;20467;-79
2023/08/07 06:16:51;;;;;;;7.67;2.53;;;;;;;;;;5037922;28;20505;-79
2023/08/07 06:19:19;;;;;;;4.00;2.53;;;;;;;;;;5043668;28;21125;-79
2023/08/07 06:21:46;;;;;;;8.70;3.07;;;;;;;;;;5039885;28;20561;-80
2023/08/07 06:24:12;;;;;;;3.43;2.40;;;;;;;;;;5043948;28;20447;-79
2023/08/07 06:26:38;;;;;;;6.97;2.80;;;;;;;;;;5040708;28;20987;-79
2023/08/07 06:29:05;;;;;;;7.03;2.87;;;;;;;;;;5043226;28;20439;-79
2023/08/07 06:31:32;;;;;;;4.73;2.67;;;;;;;;;;5040029;28;20460;-80
2023/08/07 06:34:00;;;;;;;8.00;3.47;;;;;;;;;;5040331;28;20447;-79
2023/08/07 06:36:26;;;;;;;6.90;2.73;;;;;;;;;;5043028;28;20605;-79
2023/08/07 06:38:53;;;;;;;8.57;3.10;;;;;;;;;;5044541;28;20824;-79
2023/08/07 06:41:19;;;;;;;3.53;2.57;;;;;;;;;;5041575;28;20472;-79
2023/08/07 06:43:45;;;;;;;10.10;3.60;;;;;;;;;;5041453;28;20851;-79
2023/08/07 06:46:12;;;;;;;8.70;3.03;;;;;;;;;;5039089;28;20788;-79
2023/08/07 06:48:39;;;;;;;9.43;4.30;;;;;;;;;;5040109;28;20494;-79
2023/08/07 06:51:06;;;;;;;9.97;4.07;;;;;;;;;;5040925;28;20479;-79
2023/08/07 06:53:32;;;;;;;5.73;3.70;;;;;;;;;;5042895;28;20463;-79
2023/08/07 06:55:58;;;;;;;8.80;4.47;;;;;;;;;;5043400;28;20484;-79
2023/08/07 06:58:25;;;;;;;9.23;4.77;;;;;;;;;;5041217;28;20471;-79
2023/08/07 07:00:51;;;;;;;9.90;4.73;;;;;;;;;;5040294;28;20969;-79
2023/08/07 07:03:17;;;;;;;11.93;4.23;;;;;;;;;;5039844;28;20481;-79
2023/08/07 07:05:45;;;;;;;15.10;4.20;;;;;;;;;;5041613;28;20950;-79
2023/08/07 07:08:12;;;;;;;15.23;5.00;;;;;;;;;;5040420;28;20816;-79
2023/08/07 07:10:38;;;;;;;11.93;5.40;;;;;;;;;;5040375;28;20465;-79
2023/08/07 07:13:04;;;;;;;9.83;4.80;;;;;;;;;;5039909;28;20486;-79
2023/08/07 07:15:31;;;;;;;13.70;5.10;;;;;;;;;;5040348;28;20467;-79
2023/08/07 07:17:59;;;;;;;13.23;4.30;;;;;;;;;;5040896;28;20464;-79
2023/08/07 07:20:26;;;;;;;7.80;4.37;;;;;;;;;;5040260;28;20460;-79
2023/08/07 07:22:55;;;;;;;11.93;5.40;;;;;;;;;;5043335;28;20483;-79
2023/08/07 07:25:21;;;;;;;10.10;4.23;;;;;;;;;;5041861;28;20923;-79
2023/08/07 07:27:47;;;;;;;11.40;5.60;;;;;;;;;;5041909;28;20476;-79
2023/08/07 07:30:14;;;;;;;16.03;6.60;;;;;;;;;;5048103;28;20487;-79
2023/08/07 07:32:40;;;;;;;10.70;5.00;;;;;;;;;;5047173;28;20471;-79
2023/08/07 07:35:07;;;;;;;8.97;5.47;;;;;;;;;;5044952;28;20466;-79
2023/08/07 07:37:34;;;;;;;11.90;4.93;;;;;;;;;;5046245;28;21002;-79
2023/08/07 07:40:02;;;;;;;11.20;5.37;;;;;;;;;;5048797;28;20465;-79
2023/08/07 07:42:28;;;;;;;16.20;5.43;;;;;;;;;;5044829;28;20475;-79
2023/08/07 07:44:55;;;;;;;18.30;5.67;;;;;;;;;;5044298;28;20445;-79
2023/08/07 07:47:21;;;;;;;10.00;3.80;;;;;;;;;;5045117;28;20551;-79
2023/08/07 07:49:48;;;;;;;13.70;5.40;;;;;;;;;;5045041;28;20478;-79
2023/08/07 07:52:14;;;;;;;10.67;3.50;;;;;;;;;;5046416;28;20621;-79
2023/08/07 07:54:41;;;;;;;15.23;5.40;;;;;;;;;;5045492;28;20929;-79
2023/08/07 07:57:09;;;;;;;8.83;4.40;;;;;;;;;;5042053;28;20489;-79
2023/08/07 07:59:35;;;;;;;15.20;5.13;;;;;;;;;;5045485;28;20517;-79
2023/08/07 08:02:02;;;;;;;10.93;3.93;;;;;;;;;;5043959;28;20472;-80
2023/08/07 08:04:28;;;;;;;10.63;4.17;;;;;;;;;;5045179;28;20448;-78
2023/08/07 08:06:55;;;;;;;13.20;3.93;;;;;;;;;;5045451;28;20469;-79
2023/08/07 08:09:21;;;;;;;13.70;4.17;;;;;;;;;;5024950;28;20507;-79
2023/08/07 08:11:48;;;;;;;14.77;5.27;;;;;;;;;;5044591;28;20467;-79
2023/08/07 08:14:16;;;;;;;13.17;3.87;;;;;;;;;;5043023;28;20476;-79
2023/08/07 08:16:43;;;;;;;14.23;3.97;;;;;;;;;;5043664;28;20541;-80
2023/08/07 08:19:09;;;;;;;9.30;4.07;;;;;;;;;;5046301;28;20962;-79
2023/08/07 08:21:36;;;;;;;18.17;4.53;;;;;;;;;;5044040;28;20494;-80
2023/08/07 08:24:02;;;;;;;9.53;3.23;;;;;;;;;;5047924;28;20451;-79
2023/08/07 08:26:31;;;;;;;12.47;3.20;;;;;;;;;;5042094;28;20839;-80
2023/08/07 08:28:57;;;;;;;12.10;3.07;;;;;;;;;;5043733;28;20836;-79
2023/08/07 08:31:25;;;;;;;12.17;3.80;;;;;;;;;;5042294;28;20844;-79
2023/08/07 08:33:51;;;;;;;9.30;3.50;;;;;;;;;;5042677;28;20951;-79
2023/08/07 08:36:18;;;;;;;8.30;3.63;;;;;;;;;;5043262;28;20465;-79
2023/08/07 08:38:45;;;;;;;11.83;2.97;;;;;;;;;;5041398;28;20464;-79
2023/08/07 08:41:11;;;;;;;16.60;3.67;;;;;;;;;;5040753;28;20514;-80
2023/08/07 08:43:38;;;;;;;13.33;3.83;;;;;;;;;;5043211;28;20487;-79
2023/08/07 08:46:05;;;;;;;9.60;3.57;;;;;;;;;;5044919;28;20475;-80
2023/08/07 08:48:35;;;;;;;11.20;4.20;;;;;;;;;;5042433;28;20820;-80
2023/08/07 08:51:03;;;;;;;12.40;4.87;;;;;;;;;;5047361;28;20439;-80
2023/08/07 08:53:30;;;;;;;18.40;5.07;;;;;;;;;;5042311;28;20464;-80
2023/08/07 08:55:56;;;;;;;10.93;3.40;;;;;;;;;;5043898;28;20444;-79
2023/08/07 08:58:23;;;;;;;15.63;3.37;;;;;;;;;;5046072;28;20479;-80
2023/08/07 09:00:50;;;;;;;8.70;3.87;;;;;;;;;;5044784;28;20441;-80
2023/08/07 09:03:17;;;;;;;11.87;3.50;;;;;;;;;;5041012;28;20484;-80
2023/08/07 09:05:46;;;;;;;12.93;4.70;;;;;;;;;;5043920;28;20441;-79
2023/08/07 09:08:12;;;;;;;11.37;4.60;;;;;;;;;;5045013;28;20468;-80
2023/08/07 09:10:40;;;;;;;12.80;4.13;;;;;;;;;;5044144;28;20448;-80
2023/08/07 09:13:10;;;;;;;12.23;3.30;;;;;;;;;;5042864;28;20480;-80
2023/08/07 09:15:37;;;;;;;17.90;5.50;;;;;;;;;;5042746;28;20445;-79
2023/08/07 09:18:04;;;;;;;8.93;3.80;;;;;;;;;;5042113;28;20523;-80
2023/08/07 09:20:31;;;;;;;15.50;4.60;;;;;;;;;;5043603;28;20543;-80
2023/08/07 09:22:58;;;;;;;10.37;4.70;;;;;;;;;;5039966;28;20468;-79
2023/08/07 09:25:28;;;;;;;11.80;4.10;;;;;;;;;;5041751;28;20445;-79
2023/08/07 09:27:55;;;;;;;12.43;4.27;;;;;;;;;;5042991;28;20480;-80
2023/08/07 09:30:22;;;;;;;8.90;4.23;;;;;;;;;;5042268;28;20447;-79
2023/08/07 09:32:48;;;;;;;13.50;5.00;;;;;;;;;;5044047;28;20472;-79
2023/08/07 09:35:15;;;;;;;13.83;4.13;;;;;;;;;;5041126;28;20517;-79
2023/08/07 09:37:44;;;;;;;6.73;3.63;;;;;;;;;;5042634;28;20483;-80
2023/08/07 09:40:15;;;;;;;13.80;3.80;;;;;;;;;;5043091;28;20919;-79
2023/08/07 09:42:41;;;;;;;9.17;4.03;;;;;;;;;;5043252;28;20472;-79
2023/08/07 09:45:19;;;;;;;7.07;3.17;;;;;;;;;;5044162;28;20446;-80
2023/08/07 09:47:47;;;;;;;9.20;3.50;;;;;;;;;;5043275;28;20459;-80
2023/08/07 09:50:16;;;;;;;10.13;3.10;;;;;;;;;;5045125;28;20460;-79
2023/08/07 09:52:42;;;;;;;4.77;2.77;;;;;;;;;;5042153;28;20479;-79
2023/08/07 09:55:08;;;;;;;10.63;3.10;;;;;;;;;;5043637;28;20440;-79
2023/08/07 09:57:37;;;;;;;9.13;3.57;;;;;;;;;;5042600;28;20480;-80
2023/08/07 10:00:11;;;;;;;8.87;3.27;;;;;;;;;;5042859;28;20907;-80
2023/08/07 10:02:37;;;;;;;8.87;3.67;;;;;;;;;;5041417;28;20565;-80
2023/08/07 10:05:05;;;;;;;9.23;3.13;;;;;;;;;;5042362;28;20957;-80
2023/08/07 10:07:31;;;;;;;10.30;3.10;;;;;;;;;;5040607;28;20478;-79
2023/08/07 10:09:59;;;;;;;9.33;3.00;;;;;;;;;;5044096;28;20464;-80
2023/08/07 10:12:26;;;;;;;7.80;3.40;;;;;;;;;;5041885;28;20487;-79
2023/08/07 10:14:54;;;;;;;10.53;3.73;;;;;;;;;;5041188;28;20463;-80
2023/08/07 10:17:22;;;;;;;8.23;3.17;;;;;;;;;;5040633;28;20488;-79
2023/08/07 10:19:48;;;;;;;10.40;3.20;;;;;;;;;;5043758;28;20615;-79
2023/08/07 10:22:15;;;;;;;9.27;3.27;;;;;;;;;;5040641;28;20848;-80
2023/08/07 10:24:43;;;;;;;14.03;3.50;;;;;;;;;;5040948;28;20472;-79
2023/08/07 10:27:12;;;;;;;8.53;3.43;;;;;;;;;;5040846;28;20490;-79
2023/08/07 10:29:39;;;;;;;11.90;4.00;;;;;;;;;;5043882;28;20464;-79
2023/08/07 10:32:08;;;;;;;11.60;3.60;;;;;;;;;;5042172;28;20472;-79
2023/08/07 10:34:35;;;;;;;10.07;4.30;;;;;;;;;;5041417;28;20462;-79
2023/08/07 10:37:01;;;;;;;11.77;2.90;;;;;;;;;;5039771;28;20480;-79
2023/08/07 10:39:27;;;;;;;12.47;3.50;;;;;;;;;;5039497;28;20448;-79
2023/08/07 10:41:55;;;;;;;8.97;3.40;;;;;;;;;;5040977;28;20457;-79
2023/08/07 10:44:22;;;;;;;13.37;3.90;;;;;;;;;;5041702;28;20495;-79
2023/08/07 10:46:49;;;;;;;6.50;3.40;;;;;;;;;;5039964;28;20835;-80
2023/08/07 10:49:30;;;;;;;7.17;3.13;;;;;;;;;;5040747;28;20449;-80
2023/08/07 10:51:57;;;;;;;8.57;3.30;;;;;;;;;;5041397;28;20996;-79
2023/08/07 10:54:24;;;;;;;9.50;2.93;;;;;;;;;;5042928;28;20443;-79
2023/08/07 10:56:53;;;;;;;6.50;3.40;;;;;;;;;;5039906;28;20481;-79
2023/08/07 10:59:20;;;;;;;10.60;3.50;;;;;;;;;;5041372;28;20436;-79
2023/08/07 11:01:51;;;;;;;6.80;2.53;;;;;;;;;;5040818;28;20472;-80
2023/08/07 11:04:19;;;;;;;11.57;3.33;;;;;;;;;;5044238;28;20973;-80
2023/08/07 11:06:49;;;;;;;11.73;3.43;;;;;;;;;;5045377;28;20456;-80
2023/08/07 11:09:15;;;;;;;8.27;3.00;;;;;;;;;;5045970;28;20464;-79
2023/08/07 11:11:43;;;;;;;7.00;2.80;;;;;;;;;;5044676;28;20494;-80
2023/08/07 11:14:09;;;;;;;4.20;3.20;;;;;;;;;;5046638;28;20463;-80
2023/08/07 11:16:36;;;;;;;8.40;4.20;;;;;;;;;;5042390;28;20528;-80
2023/08/07 11:19:03;;;;;;;10.27;4.53;;;;;;;;;;5044729;28;20483;-79
2023/08/07 11:21:29;;;;;;;8.53;3.07;;;;;;;;;;5044586;28;20465;-81
2023/08/07 11:23:59;;;;;;;10.90;3.77;;;;;;;;;;5044699;28;20831;-80
2023/08/07 11:26:26;;;;;;;7.80;4.07;;;;;;;;;;5043206;28;20497;-79
2023/08/07 11:28:52;;;;;;;9.97;3.43;;;;;;;;;;5043788;28;20901;-79
2023/08/07 11:31:19;;;;;;;9.93;3.87;;;;;;;;;;5044775;28;20970;-80
2023/08/07 11:33:45;;;;;;;6.93;3.13;;;;;;;;;;5046272;28;20484;-80
2023/08/07 11:36:12;;;;;;;8.83;3.00;;;;;;;;;;5044670;28;20460;-79
2023/08/07 11:38:39;;;;;;;6.00;3.23;;;;;;;;;;5045771;28;20471;-80
2023/08/07 11:41:08;;;;;;;8.63;3.00;;;;;;;;;;5043406;28;20441;-80
2023/08/07 11:43:35;;;;;;;8.63;3.23;;;;;;;;;;5042308;28;20479;-80
2023/08/07 11:46:02;;;;;;;5.83;3.43;;;;;;;;;;5046893;28;20445;-80
2023/08/07 11:48:30;;;;;;;7.43;3.03;;;;;;;;;;5045116;28;20478;-80
2023/08/07 11:50:57;;;;;;;12.73;3.40;;;;;;;;;;5045773;28;20452;-80
2023/08/07 11:53:25;;;;;;;6.07;2.63;;;;;;;;;;5042192;28;20475;-80
2023/08/07 11:55:56;;;;;;;7.23;3.33;;;;;;;;;;5045767;28;20923;-79
2023/08/07 11:58:25;;;;;;;9.73;2.73;;;;;;;;;;5042881;28;20499;-79
2023/08/07 12:00:52;;;;;;;8.83;2.90;;;;;;;;;;5046194;28;20459;-80
2023/08/07 12:03:26;;;;;;;7.23;2.37;;;;;;;;;;5043541;28;20468;-79
2023/08/07 12:05:53;;;;;;;10.27;3.07;;;;;;;;;;5028075;28;20460;-79
2023/08/07 12:08:19;;;;;;;7.63;2.67;;;;;;;;;;5042366;28;20469;-79
2023/08/07 12:10:49;;;;;;;11.50;3.03;;;;;;;;;;5045479;28;20943;-79
2023/08/07 12:13:15;;;;;;;12.03;3.80;;;;;;;;;;5044911;28;20472;-79
2023/08/07 12:15:44;;;;;;;15.10;3.20;;;;;;;;;;5039621;28;20833;-79
2023/08/07 12:18:12;;;;;;;9.23;3.47;;;;;;;;;;5042470;28;20485;-79
2023/08/07 12:20:38;;;;;;;9.57;3.30;;;;;;;;;;5045898;28;20447;-79
2023/08/07 12:23:05;;;;;;;11.57;3.13;;;;;;;;;;5043356;28;20476;-79
2023/08/07 12:25:31;;;;;;;5.40;3.00;;;;;;;;;;5041925;28;20856;-79
2023/08/07 12:27:59;;;;;;;10.13;2.70;;;;;;;;;;5045177;28;20468;-80
2023/08/07 12:30:25;;;;;;;10.73;2.83;;;;;;;;;;5043523;28;20468;-79
2023/08/07 12:32:53;;;;;;;7.07;2.77;;;;;;;;;;5042426;28;20483;-80
2023/08/07 12:35:19;;;;;;;4.23;2.53;;;;;;;;;;5044031;28;20447;-80
2023/08/07 12:37:45;;;;;;;7.63;2.73;;;;;;;;;;5044558;28;20940;-80
2023/08/07 12:40:12;;;;;;;13.20;2.40;;;;;;;;;;5042259;28;20464;-80
2023/08/07 12:42:38;;;;;;;6.20;2.87;;;;;;;;;;5043406;28;20493;-79
2023/08/07 12:45:05;;;;;;;5.57;2.90;;;;;;;;;;5045693;28;20444;-79
2023/08/07 12:47:31;;;;;;;6.80;2.47;;;;;;;;;;5043288;28;20475;-80
2023/08/07 12:49:59;;;;;;;6.60;2.43;;;;;;;;;;5044460;28;20468;-80
2023/08/07 12:52:26;;;;;;;8.90;2.83;;;;;;;;;;5043354;28;20472;-80
2023/08/07 12:54:53;;;;;;;7.83;2.47;;;;;;;;;;5044240;28;20467;-79
2023/08/07 12:57:19;;;;;;;6.57;2.57;;;;;;;;;;5043949;28;20472;-80
2023/08/07 12:59:45;;;;;;;8.27;2.57;;;;;;;;;;5046035;28;20500;-80
2023/08/07 13:02:12;;;;;;;10.40;3.00;;;;;;;;;;5040793;28;21026;-80
2023/08/07 13:04:38;;;;;;;7.40;2.50;;;;;;;;;;5043928;28;20447;-79
2023/08/07 13:07:06;;;;;;;9.47;3.90;;;;;;;;;;5042941;28;20479;-80
2023/08/07 13:09:33;;;;;;;5.10;3.93;;;;;;;;;;5043413;28;20437;-80
2023/08/07 13:11:59;;;;;;;12.53;4.07;;;;;;;;;;5041563;28;20475;-80
2023/08/07 13:14:26;;;;;;;11.00;3.20;;;;;;;;;;5042369;28;20449;-79
2023/08/07 13:16:52;;;;;;;12.10;3.50;;;;;;;;;;5042364;28;20476;-80
2023/08/07 13:19:19;;;;;;;11.70;4.30;;;;;;;;;;5042090;28;20479;-80
2023/08/07 13:21:47;;;;;;;7.63;3.17;;;;;;;;;;5041889;28;20468;-80
2023/08/07 13:24:15;;;;;;;6.70;3.13;;;;;;;;;;5043836;28;20970;-81
2023/08/07 13:26:44;;;;;;;11.60;2.87;;;;;;;;;;5044006;28;20498;-80
2023/08/07 13:29:11;;;;;;;9.80;3.53;;;;;;;;;;5042080;28;20954;-80
2023/08/07 13:31:37;;;;;;;8.53;3.17;;;;;;;;;;5041811;28;20484;-80
2023/08/07 13:34:07;;;;;;;8.23;2.80;;;;;;;;;;5043707;28;20461;-80
2023/08/07 13:36:34;;;;;;;12.13;3.83;;;;;;;;;;5041976;28;20540;-80
2023/08/07 13:39:00;;;;;;;11.70;3.10;;;;;;;;;;5042332;28;21013;-79
2023/08/07 13:41:28;;;;;;;4.93;2.70;;;;;;;;;;5043552;28;20444;-79
2023/08/07 13:43:54;;;;;;;11.77;3.40;;;;;;;;;;5043211;28;20468;-80
2023/08/07 13:46:21;;;;;;;13.00;3.30;;;;;;;;;;5046220;28;20464;-79
2023/08/07 13:48:48;;;;;;;7.37;2.83;;;;;;;;;;5041013;28;20467;-80
2023/08/07 13:51:15;;;;;;;8.67;3.60;;;;;;;;;;5042599;28;20468;-80
2023/08/07 13:53:42;;;;;;;8.77;3.20;;;;;;;;;;5042045;28;20468;-80
2023/08/07 13:56:11;;;;;;;11.83;2.97;;;;;;;;;;5043118;28;20455;-80
2023/08/07 13:58:38;;;;;;;9.13;3.37;;;;;;;;;;5041534;28;20845;-80
2023/08/07 14:01:05;;;;;;;6.00;2.83;;;;;;;;;;5042685;28;20544;-80
2023/08/07 14:03:31;;;;;;;6.93;2.77;;;;;;;;;;5043809;28;20479;-79
2023/08/07 14:05:57;;;;;;;10.70;3.60;;;;;;;;;;5043782;28;20455;-80
2023/08/07 14:08:24;;;;;;;9.60;3.43;;;;;;;;;;5042317;28;20468;-79
2023/08/07 14:10:50;;;;;;;8.90;3.37;;;;;;;;;;5042861;28;20799;-79
2023/08/07 14:13:17;;;;;;;10.33;3.77;;;;;;;;;;5040395;28;20464;-80
2023/08/07 14:15:45;;;;;;;5.80;2.57;;;;;;;;;;5042217;28;20958;-80
2023/08/07 14:18:14;;;;;;;4.07;2.80;;;;;;;;;;5041264;28;21016;-80
2023/08/07 14:20:41;;;;;;;7.17;3.40;;;;;;;;;;5044203;28;20452;-79
2023/08/07 14:23:07;;;;;;;4.23;2.40;;;;;;;;;;5041619;28;20472;-79
2023/08/07 14:25:33;;;;;;;6.57;3.00;;;;;;;;;;5040243;28;20837;-80
2023/08/07 14:28:00;;;;;;;7.93;3.53;;;;;;;;;;5042164;28;20493;-80
2023/08/07 14:30:26;;;;;;;4.50;2.40;;;;;;;;;;5042807;28;20459;-79
2023/08/07 14:32:54;;;;;;;5.30;2.40;;;;;;;;;;5040370;28;20471;-79
2023/08/07 14:35:20;;;;;;;6.70;2.30;;;;;;;;;;5039483;28;20441;-79
2023/08/07 14:37:48;;;;;;;10.83;2.97;;;;;;;;;;5045075;28;20936;-79